Terminal Aerodrome Forecast
Issued by NWS Duluth, MN

Home | Current Version | Previous Version | Text Only | Print | Product List | Glossary On
Versions: 1 2 3 4 5 6 7 8 9 10 11 12 13 14 15 16 17 18 19 20 21 22 23 24
000
FTUS43 KDLH 221500 AAA
TAFINL
TAF AMD
KINL 221524Z 2215/2312 11006KT 3SM -SN BR OVC004
     FM221800 12004KT 2SM -SNRA BR OVC004
     FM230100 10005KT 1SM BR OVC003
     FM230500 10005KT 1/2SM FG OVC002=

USA.gov is the U.S. government's official web portal to all federal, state and local government web resources and services.